createdAt,value
2019-05-18T00:01:25.385Z,10.00
2019-05-18T00:03:51.745Z,10.10
2019-05-18T00:06:18.063Z,10.10
2019-05-18T00:08:44.392Z,10.10
2019-05-18T00:11:10.748Z,10.10
2019-05-18T00:13:37.119Z,10.20
2019-05-18T00:16:03.588Z,10.20
2019-05-18T00:18:29.923Z,10.20
2019-05-18T00:20:57.522Z,10.20
2019-05-18T00:23:24.300Z,10.20
2019-05-18T00:25:50.755Z,10.20
2019-05-18T00:28:18.819Z,10.20
2019-05-18T00:30:45.163Z,10.20
2019-05-18T00:33:11.508Z,10.20
2019-05-18T00:35:37.951Z,10.10
2019-05-18T00:38:04.625Z,10.20
2019-05-18T00:40:31.289Z,10.10
2019-05-18T00:42:57.905Z,10.10
2019-05-18T00:45:25.320Z,10.10
2019-05-18T00:47:51.672Z,10.10
2019-05-18T00:50:18.110Z,10.10
2019-05-18T00:52:44.655Z,10.10
2019-05-18T00:55:11.304Z,10.10
2019-05-18T00:57:37.638Z,10.10
2019-05-18T01:00:08.771Z,10.10
2019-05-18T01:02:35.191Z,10.10
2019-05-18T01:05:03.419Z,10.00
2019-05-18T01:07:31.440Z,10.00
2019-05-18T01:09:57.810Z,10.00
2019-05-18T01:12:24.426Z,10.00
2019-05-18T01:14:50.822Z,9.90
2019-05-18T01:17:17.184Z,9.90
2019-05-18T01:19:43.510Z,9.80
2019-05-18T01:22:09.865Z,9.80
2019-05-18T01:24:36.196Z,9.70
2019-05-18T01:27:02.549Z,9.70
2019-05-18T01:29:28.944Z,9.70
2019-05-18T01:31:55.292Z,9.60
2019-05-18T01:34:21.630Z,9.60
2019-05-18T01:36:47.958Z,9.60
2019-05-18T01:39:14.650Z,9.60
2019-05-18T01:41:40.972Z,9.60
2019-05-18T01:44:08.157Z,9.50
2019-05-18T01:46:34.516Z,9.50
2019-05-18T01:49:00.855Z,9.50
2019-05-18T01:51:28.378Z,9.50
2019-05-18T01:53:54.745Z,9.40
2019-05-18T01:56:21.086Z,9.40
2019-05-18T01:58:47.390Z,9.30
2019-05-18T02:01:13.753Z,9.30
2019-05-18T02:03:40.561Z,9.20
2019-05-18T02:06:07.035Z,9.20
2019-05-18T02:08:33.338Z,9.20
2019-05-18T02:10:59.664Z,9.10
2019-05-18T02:13:25.982Z,9.10
2019-05-18T02:15:52.313Z,9.10
2019-05-18T02:18:28.784Z,9.00
2019-05-18T02:20:46.884Z,8.90
2019-05-18T02:23:13.337Z,8.90
2019-05-18T02:25:39.724Z,8.80
2019-05-18T02:28:06.092Z,8.80
2019-05-18T02:30:32.439Z,8.80
2019-05-18T02:32:58.807Z,8.80
2019-05-18T02:35:25.136Z,8.70
2019-05-18T02:37:51.754Z,8.60
2019-05-18T02:40:18.128Z,8.60
2019-05-18T02:42:44.429Z,8.60
2019-05-18T02:45:12.971Z,8.60
2019-05-18T02:47:39.307Z,8.60
2019-05-18T02:50:07.121Z,8.60
2019-05-18T02:52:33.470Z,8.60
2019-05-18T02:55:01.747Z,8.50
2019-05-18T02:57:28.098Z,8.50
2019-05-18T02:59:54.443Z,8.60
2019-05-18T03:02:20.789Z,8.60
2019-05-18T03:04:47.584Z,8.60
2019-05-18T03:07:14.018Z,8.60
2019-05-18T03:09:41.676Z,8.60
2019-05-18T03:12:08.042Z,8.50
2019-05-18T03:14:35.492Z,8.50
2019-05-18T03:17:01.935Z,8.50
2019-05-18T03:19:28.290Z,8.50
2019-05-18T03:21:54.670Z,8.40
2019-05-18T03:24:21.010Z,8.40
2019-05-18T03:26:47.802Z,8.40
2019-05-18T03:29:14.162Z,8.30
2019-05-18T03:31:40.496Z,8.20
2019-05-18T03:34:06.867Z,8.20
2019-05-18T03:36:33.179Z,8.20
2019-05-18T03:38:59.528Z,8.30
2019-05-18T03:41:25.847Z,8.40
2019-05-18T03:43:52.253Z,8.40
2019-05-18T03:46:23.321Z,8.50
2019-05-18T03:48:47.811Z,8.60
2019-05-18T03:51:16.019Z,8.60
2019-05-18T03:53:42.343Z,8.70
2019-05-18T03:56:08.719Z,8.70
2019-05-18T03:58:35.149Z,8.70
2019-05-18T04:01:01.457Z,8.70
2019-05-18T04:03:27.818Z,8.80
2019-05-18T04:05:54.191Z,8.90
2019-05-18T04:08:28.072Z,8.90
2019-05-18T04:10:54.355Z,9.00
2019-05-18T04:13:20.688Z,9.00
2019-05-18T04:15:47.591Z,9.10
2019-05-18T04:18:13.946Z,9.20
2019-05-18T04:20:40.329Z,9.30
2019-05-18T04:23:06.687Z,9.40
2019-05-18T04:25:33.099Z,9.50
2019-05-18T04:27:59.461Z,9.60
2019-05-18T04:30:25.875Z,9.80
2019-05-18T04:32:52.798Z,9.90
2019-05-18T04:35:19.132Z,10.10
2019-05-18T04:37:45.518Z,10.10
2019-05-18T04:40:12.337Z,10.20
2019-05-18T04:42:38.659Z,10.40
2019-05-18T04:45:05.884Z,10.40
2019-05-18T04:47:32.240Z,10.50
2019-05-18T04:50:05.198Z,10.60
2019-05-18T04:52:26.951Z,10.70
2019-05-18T04:54:53.357Z,10.80
2019-05-18T04:57:19.713Z,11.20
2019-05-18T04:59:46.196Z,11.40
2019-05-18T05:02:12.631Z,11.70
2019-05-18T05:04:39.192Z,11.70
2019-05-18T05:07:06.627Z,11.90
2019-05-18T05:09:32.954Z,12.10
2019-05-18T05:11:59.267Z,12.30
2019-05-18T05:14:25.725Z,12.50
2019-05-18T05:16:52.144Z,12.40
2019-05-18T05:19:18.538Z,12.50
2019-05-18T05:21:45.006Z,12.60
2019-05-18T05:24:11.366Z,12.80
2019-05-18T05:26:39.582Z,12.90
2019-05-18T05:29:07.355Z,13.20
2019-05-18T05:31:34.069Z,13.40
2019-05-18T05:34:00.388Z,13.70
2019-05-18T05:36:26.824Z,13.70
2019-05-18T05:38:54.698Z,13.70
2019-05-18T05:41:21.014Z,13.80
2019-05-18T05:43:50.590Z,13.80
2019-05-18T05:46:16.933Z,13.80
2019-05-18T05:48:43.567Z,13.70
2019-05-18T05:51:09.970Z,13.60
2019-05-18T05:53:36.340Z,13.60
2019-05-18T05:56:03.055Z,13.90
2019-05-18T05:58:29.470Z,14.00
2019-05-18T06:00:56.059Z,13.80
2019-05-18T06:03:23.688Z,13.80
2019-05-18T06:05:50.017Z,14.00
2019-05-18T06:08:16.373Z,14.40
2019-05-18T06:10:42.764Z,14.30
2019-05-18T06:13:10.773Z,14.20
2019-05-18T06:15:37.138Z,14.30
2019-05-18T06:18:03.576Z,14.30
2019-05-18T06:20:29.894Z,14.40
2019-05-18T06:22:56.831Z,14.50
2019-05-18T06:25:23.271Z,14.60
2019-05-18T06:27:49.933Z,14.70
2019-05-18T06:30:16.596Z,14.70
2019-05-18T06:32:43.034Z,14.90
2019-05-18T06:35:10.499Z,15.30
2019-05-18T06:37:36.931Z,15.20
2019-05-18T06:40:10.900Z,15.20
2019-05-18T06:42:38.439Z,15.00
2019-05-18T06:45:07.832Z,15.10
2019-05-18T06:47:34.150Z,15.00
2019-05-18T06:50:00.806Z,15.20
2019-05-18T06:52:27.186Z,15.00
2019-05-18T06:54:53.546Z,15.20
2019-05-18T06:57:22.049Z,15.10
2019-05-18T06:59:48.790Z,15.30
2019-05-18T07:02:15.123Z,15.50
2019-05-18T07:04:44.497Z,15.30
2019-05-18T07:07:10.083Z,15.30
2019-05-18T07:09:36.474Z,15.30
2019-05-18T07:12:03.215Z,15.40
2019-05-18T07:14:29.537Z,15.40
2019-05-18T07:16:56.258Z,15.30
2019-05-18T07:19:22.958Z,15.40
2019-05-18T07:21:52.192Z,15.70
2019-05-18T07:24:19.730Z,15.80
2019-05-18T07:26:46.051Z,15.70
2019-05-18T07:29:12.381Z,15.70
2019-05-18T07:31:38.751Z,15.80
2019-05-18T07:34:06.107Z,16.00
2019-05-18T07:36:32.788Z,16.20
2019-05-18T07:38:59.099Z,16.10
2019-05-18T07:41:25.459Z,16.00
2019-05-18T07:43:51.780Z,16.10
2019-05-18T07:46:18.155Z,16.00
2019-05-18T07:48:44.476Z,16.20
2019-05-18T07:51:11.900Z,16.20
2019-05-18T07:53:38.269Z,16.40
2019-05-18T07:56:04.912Z,16.50
2019-05-18T07:58:31.357Z,16.60
2019-05-18T08:00:59.787Z,16.40
2019-05-18T08:03:27.461Z,16.50
2019-05-18T08:05:53.820Z,16.50
2019-05-18T08:08:20.244Z,16.40
2019-05-18T08:10:46.572Z,16.60
2019-05-18T08:13:12.945Z,16.80
2019-05-18T08:15:41.319Z,16.70
2019-05-18T08:18:07.681Z,16.50
2019-05-18T08:20:34.193Z,16.70
2019-05-18T08:23:00.879Z,16.70
2019-05-18T08:25:28.277Z,16.70
2019-05-18T08:27:55.051Z,16.70
2019-05-18T08:30:21.376Z,16.70
2019-05-18T08:32:49.238Z,16.60
2019-05-18T08:35:18.635Z,16.70
2019-05-18T08:37:44.999Z,16.70
2019-05-18T08:40:11.426Z,16.90
2019-05-18T08:42:38.396Z,17.00
2019-05-18T08:45:06.522Z,17.10
2019-05-18T08:47:33.213Z,17.20
2019-05-18T08:49:59.537Z,17.20
2019-05-18T08:52:25.888Z,17.20
2019-05-18T08:54:52.225Z,17.30
2019-05-18T08:57:18.566Z,17.00
2019-05-18T08:59:44.902Z,17.00
2019-05-18T09:02:11.365Z,17.20
2019-05-18T09:04:37.699Z,17.30
2019-05-18T09:07:05.043Z,17.20
2019-05-18T09:09:31.375Z,17.10
2019-05-18T09:11:57.734Z,17.30
2019-05-18T09:14:24.093Z,17.40
2019-05-18T09:16:50.428Z,17.40
2019-05-18T09:19:16.764Z,17.70
2019-05-18T09:21:43.112Z,17.60
2019-05-18T09:24:09.445Z,17.60
2019-05-18T09:26:35.788Z,17.60
2019-05-18T09:29:02.282Z,17.50
2019-05-18T09:31:28.848Z,17.40
2019-05-18T09:33:55.175Z,17.40
2019-05-18T09:36:21.512Z,17.50
2019-05-18T09:38:48.920Z,17.50
2019-05-18T09:41:15.531Z,17.50
2019-05-18T09:43:42.177Z,17.40
2019-05-18T09:46:08.615Z,17.40
2019-05-18T09:48:34.980Z,17.40
2019-05-18T09:51:01.341Z,17.60
2019-05-18T09:53:30.018Z,17.70
2019-05-18T09:55:55.909Z,17.80
2019-05-18T09:58:22.251Z,17.70
2019-05-18T10:00:48.596Z,17.50
2019-05-18T10:03:14.945Z,17.60
2019-05-18T10:05:41.600Z,17.70
2019-05-18T10:08:08.294Z,17.90
2019-05-18T10:10:34.686Z,17.90
2019-05-18T10:13:03.569Z,17.90
2019-05-18T10:15:29.920Z,18.00
2019-05-18T10:17:56.288Z,18.10
2019-05-18T10:20:22.595Z,18.10
2019-05-18T10:22:59.183Z,18.10
2019-05-18T10:25:17.271Z,18.20
2019-05-18T10:27:43.642Z,18.20
2019-05-18T10:30:10.811Z,18.30
2019-05-18T10:32:37.154Z,18.30
2019-05-18T10:35:05.804Z,18.10
2019-05-18T10:37:32.438Z,18.30
2019-05-18T10:39:58.767Z,18.00
2019-05-18T10:42:25.122Z,18.10
2019-05-18T10:44:51.513Z,18.10
2019-05-18T10:47:17.866Z,18.30
2019-05-18T10:49:44.394Z,18.20
2019-05-18T10:52:10.799Z,18.20
2019-05-18T10:54:37.174Z,18.20
2019-05-18T10:57:03.787Z,18.30
2019-05-18T10:59:30.130Z,18.20
2019-05-18T11:01:56.495Z,18.20
2019-05-18T11:04:22.821Z,18.30
2019-05-18T11:06:50.388Z,18.20
2019-05-18T11:09:16.747Z,18.40
2019-05-18T11:11:44.143Z,18.70
2019-05-18T11:14:10.515Z,18.80
2019-05-18T11:16:37.344Z,19.00
2019-05-18T11:19:03.855Z,18.80
2019-05-18T11:21:30.252Z,18.90
2019-05-18T11:23:56.677Z,18.90
2019-05-18T11:26:23.070Z,19.00
2019-05-18T11:28:49.648Z,18.90
2019-05-18T11:31:16.251Z,19.10
2019-05-18T11:33:42.594Z,19.30
2019-05-18T11:36:08.964Z,19.40
2019-05-18T11:38:35.502Z,19.40
2019-05-18T11:41:01.850Z,19.70
2019-05-18T11:43:28.187Z,20.00
2019-05-18T11:45:54.626Z,20.10
2019-05-18T11:48:21.396Z,20.30
2019-05-18T11:50:47.720Z,21.20
2019-05-18T11:53:14.070Z,22.40
2019-05-18T11:55:40.423Z,23.30
2019-05-18T11:58:06.758Z,23.50
2019-05-18T12:00:34.455Z,25.10
2019-05-18T12:03:03.231Z,27.00
2019-05-18T12:05:29.579Z,27.90
2019-05-18T12:07:55.892Z,27.30
2019-05-18T12:10:22.305Z,28.40
2019-05-18T12:12:48.667Z,29.20
2019-05-18T12:15:16.125Z,29.90
2019-05-18T12:17:42.511Z,30.30
2019-05-18T12:20:09.643Z,31.70
2019-05-18T12:22:36.097Z,31.20
2019-05-18T12:25:07.831Z,29.40
2019-05-18T12:27:34.166Z,31.00
2019-05-18T12:30:00.601Z,31.00
2019-05-18T12:32:26.959Z,30.40
2019-05-18T12:34:53.378Z,29.00
2019-05-18T12:37:21.611Z,31.50
2019-05-18T12:39:49.178Z,31.20
2019-05-18T12:42:15.500Z,30.90
2019-05-18T12:44:41.918Z,32.00
2019-05-18T12:47:08.295Z,32.20
2019-05-18T12:49:34.697Z,32.90
2019-05-18T12:52:00.990Z,33.50
2019-05-18T12:54:33.962Z,34.90
2019-05-18T12:56:55.612Z,34.60
2019-05-18T12:59:21.966Z,32.30
2019-05-18T13:01:50.140Z,33.60
2019-05-18T13:04:16.507Z,32.40
2019-05-18T13:06:43.211Z,35.20
2019-05-18T13:09:09.749Z,35.60
2019-05-18T13:11:36.385Z,35.20
2019-05-18T13:14:03.539Z,34.20
2019-05-18T13:16:29.940Z,32.70
2019-05-18T13:18:59.870Z,34.70
2019-05-18T13:21:28.201Z,35.10
2019-05-18T13:23:54.540Z,35.80
2019-05-18T13:26:22.929Z,35.70
2019-05-18T13:28:49.768Z,35.90
2019-05-18T13:31:16.304Z,35.60
2019-05-18T13:33:42.787Z,36.40
2019-05-18T13:36:09.183Z,37.50
2019-05-18T13:38:35.524Z,37.50
2019-05-18T13:41:01.944Z,38.10
2019-05-18T13:43:28.402Z,37.80
2019-05-18T13:45:54.793Z,36.90
2019-05-18T13:48:21.497Z,35.60
2019-05-18T13:50:48.528Z,37.40
2019-05-18T13:53:14.886Z,38.00
2019-05-18T13:55:41.201Z,38.30
2019-05-18T13:58:07.841Z,36.40
2019-05-18T14:00:34.162Z,36.00
2019-05-18T14:03:00.529Z,37.40
2019-05-18T14:05:26.872Z,37.90
2019-05-18T14:07:53.254Z,38.00
2019-05-18T14:10:20.021Z,34.80
2019-05-18T14:12:46.418Z,35.40
2019-05-18T14:15:14.178Z,36.70
2019-05-18T14:17:41.057Z,37.30
2019-05-18T14:20:09.209Z,36.50
2019-05-18T14:22:35.612Z,36.80
2019-05-18T14:25:18.686Z,36.60
2019-05-18T14:27:37.433Z,38.10
2019-05-18T14:30:06.179Z,37.10
2019-05-18T14:32:32.857Z,37.50
2019-05-18T14:34:59.174Z,39.00
2019-05-18T14:37:25.516Z,38.80
2019-05-18T14:39:51.841Z,37.00
2019-05-18T14:42:18.191Z,38.90
2019-05-18T14:44:44.532Z,37.50
2019-05-18T14:47:10.892Z,38.50
2019-05-18T14:49:37.497Z,38.90
2019-05-18T14:52:03.976Z,39.10
2019-05-18T14:54:30.295Z,35.90
2019-05-18T14:56:56.627Z,34.50
2019-05-18T14:59:23.071Z,34.60
2019-05-18T15:01:49.406Z,36.20
2019-05-18T15:04:15.709Z,37.70
2019-05-18T15:06:42.072Z,37.50
2019-05-18T15:09:08.741Z,38.60
2019-05-18T15:11:35.102Z,39.60
2019-05-18T15:14:01.611Z,39.00
2019-05-18T15:16:28.010Z,35.20
2019-05-18T15:18:54.375Z,33.80
2019-05-18T15:21:20.700Z,34.70
2019-05-18T15:23:47.032Z,34.80
2019-05-18T15:26:13.434Z,36.60
2019-05-18T15:28:39.832Z,35.70
2019-05-18T15:31:06.448Z,34.80
2019-05-18T15:33:32.785Z,35.60
2019-05-18T15:35:59.102Z,36.40
2019-05-18T15:38:27.210Z,36.50
2019-05-18T15:40:53.545Z,34.80
2019-05-18T15:43:20.314Z,34.70
2019-05-18T15:45:46.663Z,35.40
2019-05-18T15:48:13.150Z,35.90
2019-05-18T15:50:39.839Z,36.50
2019-05-18T15:53:06.205Z,37.60
2019-05-18T15:55:32.559Z,37.70
2019-05-18T15:57:58.906Z,38.30
2019-05-18T16:00:25.261Z,37.40
2019-05-18T16:02:53.541Z,36.40
2019-05-18T16:05:20.205Z,34.20
2019-05-18T16:07:46.842Z,33.40
2019-05-18T16:10:14.069Z,33.10
2019-05-18T16:12:40.497Z,35.00
2019-05-18T16:15:07.735Z,34.50
2019-05-18T16:17:39.275Z,34.00
2019-05-18T16:20:04.719Z,35.40
2019-05-18T16:22:31.073Z,34.90
2019-05-18T16:24:57.920Z,35.50
2019-05-18T16:27:24.293Z,35.10
2019-05-18T16:29:50.999Z,35.70
2019-05-18T16:32:20.441Z,35.40
2019-05-18T16:34:46.863Z,36.60
2019-05-18T16:37:13.198Z,36.00
2019-05-18T16:39:40.732Z,33.60
2019-05-18T16:42:07.562Z,34.10
2019-05-18T16:44:33.893Z,32.30
2019-05-18T16:47:00.242Z,33.40
2019-05-18T16:49:26.598Z,33.40
2019-05-18T16:51:52.963Z,32.90
2019-05-18T16:54:19.332Z,33.70
2019-05-18T16:56:45.964Z,32.90
2019-05-18T16:59:12.465Z,33.20
2019-05-18T17:01:45.743Z,33.70
2019-05-18T17:04:12.072Z,32.50
2019-05-18T17:06:38.517Z,34.20
2019-05-18T17:09:05.164Z,34.80
2019-05-18T17:11:31.985Z,34.50
2019-05-18T17:13:58.407Z,34.70
2019-05-18T17:16:24.711Z,34.50
2019-05-18T17:18:51.103Z,34.50
2019-05-18T17:21:17.455Z,34.30
2019-05-18T17:23:45.666Z,33.80
2019-05-18T17:26:12.003Z,34.30
2019-05-18T17:28:40.173Z,34.20
2019-05-18T17:31:06.517Z,33.90
2019-05-18T17:33:33.123Z,32.90
2019-05-18T17:36:00.685Z,33.30
2019-05-18T17:38:27.583Z,32.90
2019-05-18T17:40:53.920Z,32.50
2019-05-18T17:43:20.347Z,32.20
2019-05-18T17:45:46.680Z,32.00
2019-05-18T17:48:13.029Z,32.30
2019-05-18T17:50:40.755Z,31.50
2019-05-18T17:53:07.226Z,31.80
2019-05-18T17:55:33.578Z,31.30
2019-05-18T17:57:59.931Z,30.70
2019-05-18T18:00:26.469Z,29.80
2019-05-18T18:02:53.301Z,29.20
2019-05-18T18:05:20.169Z,27.90
2019-05-18T18:07:48.566Z,27.10
2019-05-18T18:10:15.681Z,26.00
2019-05-18T18:12:42.014Z,25.00
2019-05-18T18:15:08.867Z,24.50
2019-05-18T18:17:36.945Z,24.00
2019-05-18T18:20:05.382Z,23.60
2019-05-18T18:22:31.980Z,23.10
2019-05-18T18:24:58.391Z,22.60
2019-05-18T18:27:27.783Z,22.20
2019-05-18T18:29:53.055Z,22.00
2019-05-18T18:32:19.607Z,21.90
2019-05-18T18:34:46.053Z,21.60
2019-05-18T18:37:12.346Z,21.30
2019-05-18T18:39:39.776Z,21.10
2019-05-18T18:42:06.241Z,20.90
2019-05-18T18:44:32.883Z,20.70
2019-05-18T18:46:59.246Z,20.50
2019-05-18T18:49:25.758Z,20.30
2019-05-18T18:51:52.421Z,20.20
2019-05-18T18:54:18.772Z,20.10
2019-05-18T18:56:46.519Z,20.10
2019-05-18T18:59:12.988Z,20.00
2019-05-18T19:01:39.404Z,19.90
2019-05-18T19:04:05.935Z,19.80
2019-05-18T19:06:32.373Z,19.50
2019-05-18T19:08:58.811Z,19.30
2019-05-18T19:11:25.527Z,19.00
2019-05-18T19:13:51.900Z,19.00
2019-05-18T19:16:19.356Z,18.80
2019-05-18T19:18:46.059Z,18.70
2019-05-18T19:21:13.407Z,18.60
2019-05-18T19:23:39.961Z,18.40
2019-05-18T19:26:06.361Z,18.20
2019-05-18T19:28:32.839Z,18.00
2019-05-18T19:30:59.175Z,17.90
2019-05-18T19:33:27.214Z,17.80
2019-05-18T19:35:53.911Z,17.70
2019-05-18T19:38:20.312Z,17.70
2019-05-18T19:40:47.735Z,17.60
2019-05-18T19:43:14.072Z,17.60
2019-05-18T19:45:40.750Z,17.60
2019-05-18T19:48:07.103Z,17.60
2019-05-18T19:50:33.537Z,17.60
2019-05-18T19:53:00.251Z,17.50
2019-05-18T19:55:26.583Z,17.40
2019-05-18T19:58:07.817Z,17.30
2019-05-18T20:00:25.108Z,17.30
2019-05-18T20:02:51.788Z,17.30
2019-05-18T20:05:18.179Z,17.20
2019-05-18T20:07:44.637Z,17.10
2019-05-18T20:10:13.237Z,17.10
2019-05-18T20:12:39.657Z,17.00
2019-05-18T20:15:09.586Z,17.00
2019-05-18T20:17:36.536Z,16.90
2019-05-18T20:20:07.078Z,16.80
2019-05-18T20:22:33.598Z,16.80
2019-05-18T20:24:59.929Z,16.70
2019-05-18T20:27:29.781Z,16.60
2019-05-18T20:29:56.575Z,16.50
2019-05-18T20:32:22.921Z,16.40
2019-05-18T20:34:49.329Z,16.40
2019-05-18T20:37:15.766Z,16.30
2019-05-18T20:39:42.367Z,16.20
2019-05-18T20:42:08.961Z,16.10
2019-05-18T20:44:35.459Z,16.10
2019-05-18T20:47:01.999Z,16.10
2019-05-18T20:49:28.335Z,16.00
2019-05-18T20:51:55.244Z,15.90
2019-05-18T20:54:21.797Z,15.90
2019-05-18T20:56:48.135Z,15.80
2019-05-18T20:59:14.995Z,15.70
2019-05-18T21:01:41.361Z,15.60
2019-05-18T21:04:07.709Z,15.50
2019-05-18T21:06:34.528Z,15.40
2019-05-18T21:09:00.994Z,15.30
2019-05-18T21:11:27.317Z,15.20
2019-05-18T21:13:53.756Z,15.20
2019-05-18T21:16:20.077Z,15.10
2019-05-18T21:18:46.832Z,15.10
2019-05-18T21:21:13.147Z,15.10
2019-05-18T21:23:39.502Z,15.10
2019-05-18T21:26:08.829Z,15.10
2019-05-18T21:28:35.630Z,15.10
2019-05-18T21:31:02.105Z,15.00
2019-05-18T21:33:28.459Z,15.00
2019-05-18T21:35:54.818Z,14.90
2019-05-18T21:38:21.139Z,14.90
2019-05-18T21:40:47.467Z,14.90
2019-05-18T21:43:13.835Z,14.80
2019-05-18T21:45:40.148Z,14.50
2019-05-18T21:48:06.604Z,14.40
2019-05-18T21:50:32.935Z,14.40
2019-05-18T21:52:59.782Z,14.30
2019-05-18T21:55:26.068Z,14.30
2019-05-18T21:57:52.380Z,14.30
2019-05-18T22:00:20.030Z,14.20
2019-05-18T22:02:48.760Z,14.20
2019-05-18T22:05:15.243Z,14.10
2019-05-18T22:07:41.562Z,14.10
2019-05-18T22:10:08.330Z,14.10
2019-05-18T22:12:34.697Z,14.00
2019-05-18T22:15:01.425Z,14.00
2019-05-18T22:17:27.800Z,14.00
2019-05-18T22:19:54.147Z,14.00
2019-05-18T22:22:20.461Z,14.00
2019-05-18T22:24:46.781Z,14.00
2019-05-18T22:27:13.463Z,13.90
2019-05-18T22:29:39.986Z,13.90
2019-05-18T22:32:06.342Z,13.90
2019-05-18T22:34:33.006Z,13.80
2019-05-18T22:36:59.336Z,13.70
2019-05-18T22:39:26.751Z,13.50
2019-05-18T22:41:53.227Z,13.40
2019-05-18T22:44:19.775Z,13.50
2019-05-18T22:46:46.095Z,13.60
2019-05-18T22:49:13.925Z,13.50
2019-05-18T22:51:40.264Z,13.50
2019-05-18T22:54:06.618Z,13.50
2019-05-18T22:56:32.957Z,13.50
2019-05-18T22:58:59.281Z,13.60
2019-05-18T23:01:25.926Z,13.60
2019-05-18T23:03:52.347Z,13.60
2019-05-18T23:06:18.753Z,13.60
2019-05-18T23:08:45.436Z,13.60
2019-05-18T23:11:12.444Z,13.60
2019-05-18T23:13:38.846Z,13.50
2019-05-18T23:16:05.552Z,13.40
2019-05-18T23:18:31.903Z,13.30
2019-05-18T23:20:58.234Z,13.20
2019-05-18T23:23:24.557Z,13.30
2019-05-18T23:25:50.911Z,13.30
2019-05-18T23:28:17.238Z,13.20
2019-05-18T23:30:43.595Z,13.20
2019-05-18T23:33:11.015Z,13.30
2019-05-18T23:35:37.578Z,13.30
2019-05-18T23:38:04.292Z,13.30
2019-05-18T23:40:30.626Z,13.20
2019-05-18T23:42:57.339Z,13.20
2019-05-18T23:45:23.763Z,13.10
2019-05-18T23:47:50.453Z,13.00
2019-05-18T23:50:16.887Z,12.90
2019-05-18T23:52:43.262Z,12.90
2019-05-18T23:55:09.785Z,12.90
2019-05-18T23:57:36.284Z,12.80
